CheckWX is a tool to help pilots better visualize weather data.  It is not intended as a substitute for an official pre-flight weather briefing.

07:25:01 UTC

HESG METAR
Sohag Airport
Sohag, Egypt
Current

1 hour ago

HESG 210600Z 33005KT CAVOK 29/03 Q1011 NOSIG
Observed
May-21 @ 06:00 UTC
Wind
  • 330° at 5 KTS
Visibility
10,000+ meters
Flight Rules
VFR
Cloud Levels
  • Clear skies
Temperature
29°C / 84°F
Dewpoint
C / 37°F
Humidity
19%
Altimeter
29.85" Hg
Pressure
1010.92 hPa
Previous

2 hours ago

HESG 210500Z 34005KT CAVOK 26/04 Q1011 NOSIG
Observed
May-21 @ 05:00 UTC
Wind
  • 340° at 5 KTS
Visibility
10,000+ meters
Flight Rules
VFR
Cloud Levels
  • Clear skies
Temperature
26°C / 79°F
Dewpoint
C / 39°F
Humidity
24%
Altimeter
29.85" Hg
Pressure
1010.92 hPa
Previous

3 hours ago

HESG 210400Z 30004KT CAVOK 25/02 Q1009 NOSIG
Observed
May-21 @ 04:00 UTC
Wind
  • 300° at 4 KTS
Visibility
10,000+ meters
Flight Rules
VFR
Cloud Levels
  • Clear skies
Temperature
25°C / 77°F
Dewpoint
C / 36°F
Humidity
22%
Altimeter
29.79" Hg
Pressure
1008.92 hPa